Time;durP1;ratioP1;P1;durP2;ratioP2;P2;SDS_P1;SDS_P2;PMS_P1;PMS_P2;Temp;Humidity;BMP_temperature;BMP_pressure;BME280_temperature;BME280_humidity;BME280_pressure;Samples;Min_cycle;Max_cycle;Signal;HPM_P1;HPM_P2
2022/06/06 00:00:51;;;;;;;1.38;1.10;;;18.90;99.90;;;;;;7388535;19;20145;-77
2022/06/06 00:03:19;;;;;;;1.92;1.23;;;18.90;99.90;;;;;;7385595;19;20178;-75
2022/06/06 00:05:47;;;;;;;1.88;1.55;;;18.90;99.90;;;;;;7391951;19;20151;-78
2022/06/06 00:08:15;;;;;;;5.45;1.40;;;18.80;99.90;;;;;;7387919;19;20138;-77
2022/06/06 00:10:43;;;;;;;1.50;1.27;;;18.50;99.90;;;;;;7389361;19;20634;-77
2022/06/06 00:13:10;;;;;;;2.38;1.20;;;18.60;99.90;;;;;;7388548;19;20126;-76
2022/06/06 00:15:36;;;;;;;1.45;1.33;;;18.30;99.90;;;;;;7389213;19;20137;-76
2022/06/06 00:18:03;;;;;;;2.58;1.50;;;18.10;99.90;;;;;;7386135;19;20674;-76
2022/06/06 00:20:31;;;;;;;1.38;1.10;;;17.90;99.90;;;;;;7386219;19;20610;-77
2022/06/06 00:22:58;;;;;;;1.65;1.30;;;17.90;99.90;;;;;;7386905;19;20134;-75
2022/06/06 00:25:24;;;;;;;1.55;1.10;;;17.70;99.90;;;;;;7388450;19;20169;-77
2022/06/06 00:27:50;;;;;;;1.60;1.23;;;17.80;99.90;;;;;;7383129;19;20130;-78
2022/06/06 00:30:16;;;;;;;1.50;1.40;;;17.80;99.90;;;;;;7389480;19;20135;-77
2022/06/06 00:35:27;;;;;;;1.98;1.25;;;18.10;99.90;;;;;;7385949;19;20151;-77
2022/06/06 00:37:53;;;;;;;5.22;1.50;;;18.20;99.90;;;;;;7391117;19;20475;-76
2022/06/06 00:40:21;;;;;;;3.70;1.73;;;18.30;99.90;;;;;;7387777;19;20175;-77
2022/06/06 00:42:47;;;;;;;2.80;1.50;;;18.30;99.90;;;;;;7387980;19;20186;-77
2022/06/06 00:45:33;;;;;;;1.60;1.30;;;18.20;99.90;;;;;;7387468;19;20156;-77
2022/06/06 00:48:36;;;;;;;3.33;1.60;;;18.10;99.90;;;;;;7385765;19;20130;-78
2022/06/06 00:51:15;;;;;;;1.55;1.45;;;18.30;99.90;;;;;;7387481;19;20162;-77
2022/06/06 00:53:50;;;;;;;1.48;1.20;;;18.50;99.90;;;;;;7386462;19;20202;-77
2022/06/06 00:56:35;;;;;;;1.70;1.33;;;18.70;99.90;;;;;;7386569;19;20223;-77
2022/06/06 00:59:06;;;;;;;1.20;1.10;;;18.60;99.90;;;;;;7387428;19;20150;-77
2022/06/06 01:01:35;;;;;;;2.15;1.70;;;18.50;99.90;;;;;;7386394;19;20146;-77
2022/06/06 01:04:03;;;;;;;2.20;1.30;;;18.50;99.90;;;;;;7384027;19;20638;-77
2022/06/06 01:06:33;;;;;;;1.17;1.08;;;18.50;99.90;;;;;;7386827;19;20138;-76
2022/06/06 01:09:00;;;;;;;3.50;1.48;;;18.60;99.90;;;;;;7384863;19;20149;-78
2022/06/06 01:11:25;;;;;;;1.40;1.20;;;18.60;99.90;;;;;;7387963;19;20606;-78
2022/06/06 01:13:54;;;;;;;1.63;1.40;;;18.50;99.90;;;;;;7385963;19;20131;-77
2022/06/06 01:16:32;;;;;;;2.08;1.70;;;18.50;99.90;;;;;;7384668;19;20150;-77
2022/06/06 01:19:19;;;;;;;2.17;1.40;;;18.60;99.90;;;;;;7385336;19;20158;-79
2022/06/06 01:21:51;;;;;;;1.88;1.67;;;18.50;99.90;;;;;;7385024;19;20143;-77
2022/06/06 01:24:17;;;;;;;1.63;1.52;;;18.40;99.90;;;;;;7386810;19;20147;-76
2022/06/06 01:27:07;;;;;;;1.60;1.50;;;18.30;99.90;;;;;;7388138;19;20147;-76
2022/06/06 01:29:38;;;;;;;2.20;1.63;;;18.40;99.90;;;;;;7393616;19;20127;-77
2022/06/06 01:32:18;;;;;;;3.20;1.30;;;18.40;99.90;;;;;;7393772;19;20134;-78
2022/06/06 01:34:48;;;;;;;2.47;1.60;;;18.50;99.90;;;;;;7393481;19;20134;-78
2022/06/06 01:37:28;;;;;;;2.25;1.55;;;18.60;99.90;;;;;;7394717;19;20149;-78
2022/06/06 01:39:56;;;;;;;2.85;1.70;;;18.60;99.90;;;;;;7390838;19;20154;-77
2022/06/06 01:42:34;;;;;;;1.67;1.38;;;18.50;99.90;;;;;;7391973;19;20152;-79
2022/06/06 01:45:06;;;;;;;2.38;1.70;;;18.40;99.90;;;;;;7394177;19;20150;-76
2022/06/06 01:47:39;;;;;;;1.35;1.25;;;18.40;99.90;;;;;;7390824;19;20135;-77
2022/06/06 01:50:06;;;;;;;1.83;1.40;;;18.50;99.90;;;;;;7390995;19;20594;-75
2022/06/06 01:52:52;;;;;;;2.42;1.80;;;18.50;99.90;;;;;;7393753;19;20138;-78
2022/06/06 01:55:18;;;;;;;1.60;1.50;;;18.40;99.90;;;;;;7391514;19;20158;-78
2022/06/06 01:57:45;;;;;;;1.58;1.48;;;18.40;99.90;;;;;;7389811;19;20126;-76
2022/06/06 02:00:13;;;;;;;1.85;1.55;;;18.50;99.90;;;;;;7387244;19;20547;-75
2022/06/06 02:02:40;;;;;;;1.80;1.50;;;18.30;99.90;;;;;;7394374;19;20137;-77
2022/06/06 02:05:06;;;;;;;1.60;1.50;;;18.20;99.90;;;;;;7386340;19;20182;-76
2022/06/06 02:07:33;;;;;;;1.92;1.48;;;18.30;99.90;;;;;;7389991;19;20218;-76
2022/06/06 02:09:58;;;;;;;1.98;1.38;;;18.40;99.90;;;;;;7390550;19;20606;-78
2022/06/06 02:12:24;;;;;;;2.05;1.58;;;18.40;99.90;;;;;;7393700;19;20157;-77
2022/06/06 02:14:50;;;;;;;1.83;1.67;;;18.50;99.90;;;;;;7389931;19;20142;-76
2022/06/06 02:17:16;;;;;;;3.38;1.65;;;18.50;99.90;;;;;;7390474;19;20154;-76
2022/06/06 02:19:44;;;;;;;2.17;1.52;;;18.40;99.90;;;;;;7389325;19;20147;-77
2022/06/06 02:22:10;;;;;;;3.85;1.50;;;18.40;99.90;;;;;;7391360;19;20138;-75
2022/06/06 02:24:36;;;;;;;2.83;1.38;;;18.30;99.90;;;;;;7387637;19;20135;-76
2022/06/06 02:27:02;;;;;;;2.15;1.60;;;18.10;99.90;;;;;;7392892;19;20497;-76
2022/06/06 02:29:27;;;;;;;1.95;1.50;;;18.00;99.90;;;;;;7388256;19;20138;-76
2022/06/06 02:31:53;;;;;;;4.07;1.65;;;18.00;99.90;;;;;;7391364;19;20137;-78
2022/06/06 02:34:19;;;;;;;2.83;1.73;;;18.00;99.90;;;;;;7391750;19;20127;-78
2022/06/06 02:36:45;;;;;;;2.30;1.38;;;18.00;99.90;;;;;;7390604;19;20126;-76
2022/06/06 02:39:10;;;;;;;3.17;1.52;;;18.00;99.90;;;;;;7394209;19;20141;-75
2022/06/06 02:41:36;;;;;;;1.88;1.70;;;18.00;99.90;;;;;;7388347;19;20595;-76
2022/06/06 02:44:02;;;;;;;1.70;1.45;;;17.90;99.90;;;;;;7388984;19;20147;-76
2022/06/06 02:46:28;;;;;;;3.40;1.95;;;18.10;99.90;;;;;;7391961;19;20625;-78
2022/06/06 02:48:55;;;;;;;2.33;1.67;;;18.00;99.90;;;;;;7389778;19;20147;-76
2022/06/06 02:51:21;;;;;;;1.45;1.33;;;17.80;99.90;;;;;;7389865;19;20170;-77
2022/06/06 02:53:47;;;;;;;2.67;1.65;;;17.80;99.90;;;;;;7390131;19;20151;-76
2022/06/06 02:56:12;;;;;;;1.45;1.35;;;17.90;99.90;;;;;;7390814;19;20153;-77
2022/06/06 02:58:38;;;;;;;2.65;1.70;;;18.00;99.90;;;;;;7391974;19;20166;-76
2022/06/06 03:01:07;;;;;;;2.05;1.70;;;18.20;99.90;;;;;;7386347;19;20170;-77
2022/06/06 03:03:35;;;;;;;2.70;1.90;;;18.10;99.90;;;;;;7389638;19;20178;-78
2022/06/06 03:06:19;;;;;;;2.53;1.70;;;17.80;99.90;;;;;;7389927;19;20150;-76
2022/06/06 03:08:57;;;;;;;2.75;1.65;;;17.80;99.90;;;;;;7390157;19;20146;-78
2022/06/06 03:11:36;;;;;;;2.13;1.60;;;17.70;99.90;;;;;;7391612;19;20482;-75
2022/06/06 03:14:40;;;;;;;2.25;1.40;;;17.70;99.90;;;;;;7391314;19;20166;-75
2022/06/06 03:20:47;;;;;;;2.05;1.85;;;17.60;99.90;;;;;;7388745;19;20159;-77
2022/06/06 03:23:25;;;;;;;2.53;1.40;;;17.60;99.90;;;;;;7390330;19;20130;-77
2022/06/06 03:26:13;;;;;;;3.83;1.90;;;17.70;99.90;;;;;;7389394;19;20138;-76
2022/06/06 03:29:13;;;;;;;4.68;2.03;;;17.70;99.90;;;;;;7388974;19;20134;-76
2022/06/06 03:32:01;;;;;;;4.18;1.83;;;17.80;99.90;;;;;;7391419;19;20138;-76
2022/06/06 03:34:57;;;;;;;5.65;2.10;;;17.80;99.90;;;;;;7388782;19;20134;-76
2022/06/06 03:37:47;;;;;;;2.70;1.83;;;17.80;99.90;;;;;;7386335;19;20520;-76
2022/06/06 03:40:31;;;;;;;1.73;1.63;;;17.80;99.90;;;;;;7387613;19;20145;-76
2022/06/06 03:43:11;;;;;;;3.80;2.00;;;17.60;99.90;;;;;;7387809;19;20158;-77
2022/06/06 03:45:53;;;;;;;5.88;2.05;;;17.70;99.90;;;;;;7391022;19;20130;-77
2022/06/06 03:48:25;;;;;;;5.40;2.20;;;17.80;99.90;;;;;;7385951;19;20163;-76
2022/06/06 03:51:19;;;;;;;3.90;1.70;;;17.70;99.90;;;;;;7386000;19;20482;-77
2022/06/06 03:53:56;;;;;;;3.47;1.90;;;17.40;99.90;;;;;;7389048;19;20183;-76
2022/06/06 03:57:00;;;;;;;2.10;1.70;;;17.60;99.90;;;;;;7388401;19;20486;-76
2022/06/06 03:59:29;;;;;;;2.50;2.10;;;17.70;99.90;;;;;;7389943;19;20153;-77
2022/06/06 04:01:58;;;;;;;2.92;1.92;;;17.60;99.90;;;;;;7388175;19;20154;-76
2022/06/06 04:04:25;;;;;;;4.68;1.83;;;17.80;99.90;;;;;;7387014;19;20184;-77
2022/06/06 04:06:57;;;;;;;4.88;2.05;;;17.80;99.90;;;;;;7385278;19;20173;-76
2022/06/06 04:09:31;;;;;;;2.40;1.80;;;18.00;99.90;;;;;;7389267;19;20141;-76
2022/06/06 04:12:15;;;;;;;4.63;2.00;;;17.90;99.90;;;;;;7387275;19;20245;-76
2022/06/06 04:15:01;;;;;;;2.55;1.98;;;17.80;99.90;;;;;;7389347;19;20142;-77
2022/06/06 04:17:46;;;;;;;2.00;1.80;;;17.90;99.90;;;;;;7385476;19;20221;-78
2022/06/06 04:20:44;;;;;;;1.85;1.63;;;17.80;99.90;;;;;;7387911;19;20138;-77
2022/06/06 04:23:36;;;;;;;2.58;1.85;;;17.90;99.90;;;;;;7388189;19;20242;-76
2022/06/06 04:26:16;;;;;;;2.50;1.88;;;17.70;99.90;;;;;;7387450;19;20154;-77
2022/06/06 04:29:04;;;;;;;1.92;1.55;;;17.60;99.90;;;;;;7385506;19;20138;-76
2022/06/06 04:31:43;;;;;;;2.47;1.80;;;17.80;99.90;;;;;;7388509;19;20159;-77
2022/06/06 04:34:37;;;;;;;2.58;1.90;;;17.90;99.90;;;;;;7386539;19;20150;-76
2022/06/06 04:37:33;;;;;;;2.67;1.60;;;17.70;99.90;;;;;;7385387;19;20161;-78
2022/06/06 04:40:04;;;;;;;3.17;1.73;;;17.70;99.90;;;;;;7386765;19;20159;-76
2022/06/06 04:42:48;;;;;;;2.28;2.00;;;17.80;99.90;;;;;;7386291;19;20266;-75
2022/06/06 04:45:40;;;;;;;1.98;1.83;;;17.80;99.90;;;;;;7387948;19;20254;-77
2022/06/06 04:48:07;;;;;;;2.60;1.55;;;17.90;99.90;;;;;;7388917;19;20139;-76
2022/06/06 04:50:34;;;;;;;1.85;1.52;;;17.90;99.90;;;;;;7385977;19;20158;-77
2022/06/06 04:53:06;;;;;;;2.78;1.60;;;18.00;99.90;;;;;;7385449;19;20135;-77
2022/06/06 04:55:36;;;;;;;5.07;1.77;;;17.90;99.90;;;;;;7387491;19;20142;-76
2022/06/06 04:58:03;;;;;;;3.25;1.90;;;17.80;99.90;;;;;;7385603;19;20868;-77
2022/06/06 05:00:38;;;;;;;2.40;1.90;;;17.90;99.90;;;;;;7387205;19;20167;-76
2022/06/06 05:03:04;;;;;;;5.18;2.30;;;18.10;99.90;;;;;;7391775;19;20142;-75
2022/06/06 05:05:42;;;;;;;1.73;1.55;;;18.00;99.90;;;;;;7391953;19;20166;-76
2022/06/06 05:08:24;;;;;;;1.90;1.58;;;18.00;99.90;;;;;;7391350;19;20146;-77
2022/06/06 05:11:05;;;;;;;2.22;1.70;;;18.20;99.90;;;;;;7394098;19;20163;-78
2022/06/06 05:13:42;;;;;;;1.70;1.60;;;18.30;99.90;;;;;;7395079;19;20142;-77
2022/06/06 05:16:50;;;;;;;2.03;1.83;;;18.40;99.90;;;;;;7394514;19;20150;-77
2022/06/06 05:19:48;;;;;;;2.17;1.80;;;18.50;99.90;;;;;;7392881;19;20212;-79
2022/06/06 05:22:41;;;;;;;2.38;1.58;;;18.70;99.90;;;;;;7395128;19;20162;-77
2022/06/06 05:25:41;;;;;;;2.17;1.88;;;18.70;99.90;;;;;;7391901;19;20154;-77
2022/06/06 05:28:25;;;;;;;2.45;1.80;;;18.80;99.90;;;;;;7390427;19;20147;-77
2022/06/06 05:31:18;;;;;;;2.40;1.77;;;18.90;99.90;;;;;;7394956;19;20150;-79
2022/06/06 05:33:57;;;;;;;1.90;1.65;;;19.00;99.90;;;;;;7394025;19;20171;-77
2022/06/06 05:36:39;;;;;;;3.20;1.90;;;19.00;99.90;;;;;;7393583;19;20493;-77
2022/06/06 05:39:14;;;;;;;2.88;1.65;;;18.80;99.90;;;;;;7392982;19;20131;-78
2022/06/06 05:41:55;;;;;;;3.45;1.80;;;18.70;99.90;;;;;;7393567;19;20535;-78
2022/06/06 05:44:37;;;;;;;2.25;2.05;;;18.80;99.90;;;;;;7395524;19;20152;-76
2022/06/06 05:47:20;;;;;;;3.22;1.60;;;18.90;99.90;;;;;;7392748;19;20146;-75
2022/06/06 05:50:10;;;;;;;1.88;1.73;;;19.00;99.90;;;;;;7392585;19;20131;-78
2022/06/06 05:52:50;;;;;;;1.75;1.63;;;19.20;99.90;;;;;;7392716;19;20142;-76
2022/06/06 05:55:41;;;;;;;2.35;1.63;;;19.10;99.90;;;;;;7392051;19;20505;-77
2022/06/06 05:59:10;;;;;;;2.45;1.77;;;19.10;99.90;;;;;;7393695;19;20503;-77
2022/06/06 06:01:57;;;;;;;7.68;2.05;;;19.30;99.90;;;;;;7389436;19;20146;-77
2022/06/06 06:04:38;;;;;;;2.10;1.90;;;19.30;99.90;;;;;;7390257;19;20669;-75
2022/06/06 06:07:13;;;;;;;1.73;1.63;;;19.30;99.90;;;;;;7390905;19;20150;-74
2022/06/06 06:10:00;;;;;;;2.53;1.88;;;19.50;99.90;;;;;;7392537;19;20614;-74
2022/06/06 06:12:57;;;;;;;5.65;2.63;;;19.70;99.90;;;;;;7394633;19;20164;-74
2022/06/06 06:15:22;;;;;;;2.05;1.80;;;20.10;99.90;;;;;;7392393;19;20163;-73
2022/06/06 06:17:52;;;;;;;2.17;1.70;;;20.40;99.90;;;;;;7389653;19;20154;-75
2022/06/06 06:20:22;;;;;;;2.28;2.08;;;20.80;99.90;;;;;;7391316;19;20138;-75
2022/06/06 06:22:48;;;;;;;3.25;1.63;;;21.20;99.90;;;;;;7392495;19;20139;-75
2022/06/06 06:25:17;;;;;;;2.13;1.80;;;21.40;99.90;;;;;;7391078;19;20147;-75
2022/06/06 06:27:44;;;;;;;2.63;2.10;;;21.30;99.90;;;;;;7390997;19;20134;-75
2022/06/06 06:30:12;;;;;;;2.92;1.88;;;21.30;99.90;;;;;;7387302;19;20497;-75
2022/06/06 06:33:15;;;;;;;3.42;2.03;;;21.20;99.90;;;;;;7392927;19;20712;-75
2022/06/06 06:35:41;;;;;;;2.22;2.00;;;21.20;99.90;;;;;;7390415;19;20142;-74
2022/06/06 06:38:26;;;;;;;2.97;1.92;;;21.30;99.90;;;;;;7390900;19;20232;-74
2022/06/06 06:41:10;;;;;;;2.13;1.80;;;21.20;99.90;;;;;;7392663;19;20173;-74
2022/06/06 06:43:43;;;;;;;2.25;2.05;;;21.30;99.90;;;;;;7392323;19;20717;-73
2022/06/06 06:46:20;;;;;;;2.00;1.80;;;21.30;99.90;;;;;;7391129;19;20130;-75
2022/06/06 06:48:51;;;;;;;3.65;1.80;;;21.50;99.90;;;;;;7391054;19;20606;-72
2022/06/06 06:51:33;;;;;;;2.50;1.80;;;21.70;99.90;;;;;;7391767;19;20151;-73
2022/06/06 06:54:20;;;;;;;2.42;1.80;;;21.80;99.90;;;;;;7392420;19;20138;-75
2022/06/06 06:57:07;;;;;;;4.40;1.67;;;21.90;99.90;;;;;;7388502;19;20177;-75
2022/06/06 07:00:13;;;;;;;2.40;1.85;;;22.30;99.90;;;;;;7389984;19;20150;-76
2022/06/06 07:09:28;;;;;;;1.77;1.48;;;22.80;99.90;;;;;;7380521;19;20563;-78
2022/06/06 07:12:30;;;;;;;3.25;1.90;;;22.30;99.90;;;;;;7392022;19;20266;-78
2022/06/06 07:15:08;;;;;;;3.15;1.67;;;22.20;99.90;;;;;;7388634;19;20167;-79
2022/06/06 07:17:42;;;;;;;1.92;1.80;;;22.50;99.90;;;;;;7389602;19;20184;-76
2022/06/06 07:20:10;;;;;;;2.22;2.03;;;22.10;99.90;;;;;;7392065;19;20135;-83
2022/06/06 07:22:59;;;;;;;3.00;1.95;;;22.00;99.90;;;;;;7386597;19;20171;-75
2022/06/06 07:25:49;;;;;;;2.75;1.70;;;22.00;99.90;;;;;;7387660;19;20176;-79
2022/06/06 07:28:18;;;;;;;2.55;1.65;;;21.80;99.90;;;;;;7389140;19;20135;-76
2022/06/06 07:31:15;;;;;;;2.65;1.70;;;21.70;99.90;;;;;;7381594;19;20131;-78
2022/06/06 07:33:59;;;;;;;2.20;1.85;;;21.50;99.90;;;;;;7385512;19;20150;-76
2022/06/06 07:36:36;;;;;;;2.22;1.60;;;21.50;99.90;;;;;;7383459;19;20233;-77
2022/06/06 07:39:29;;;;;;;3.13;2.00;;;21.70;99.90;;;;;;7386175;19;20501;-75
2022/06/06 07:42:04;;;;;;;2.45;1.75;;;21.80;99.90;;;;;;7386801;19;20143;-76
2022/06/06 07:44:36;;;;;;;2.15;1.80;;;21.80;99.90;;;;;;7383164;19;20122;-75
2022/06/06 07:47:27;;;;;;;2.47;1.85;;;21.70;99.90;;;;;;7382226;19;20161;-75
2022/06/06 07:50:18;;;;;;;3.05;1.67;;;21.70;99.90;;;;;;7386764;19;20192;-76
2022/06/06 07:52:44;;;;;;;3.42;1.77;;;22.00;99.90;;;;;;7387071;19;20153;-76
2022/06/06 07:55:33;;;;;;;2.10;1.30;;;22.60;99.90;;;;;;7384583;19;20462;-77
2022/06/06 07:58:04;;;;;;;2.70;1.50;;;23.00;99.90;;;;;;7386710;19;20177;-77
2022/06/06 08:00:31;;;;;;;1.98;1.52;;;23.50;99.90;;;;;;7389080;19;20130;-78
2022/06/06 08:03:17;;;;;;;2.53;1.95;;;23.50;99.90;;;;;;7385129;19;20154;-75
2022/06/06 08:06:03;;;;;;;2.15;1.65;;;23.30;99.90;;;;;;7387539;19;20553;-76
2022/06/06 08:08:39;;;;;;;2.05;1.77;;;23.30;99.90;;;;;;7374082;19;20158;-77
2022/06/06 08:11:22;;;;;;;2.35;1.52;;;23.50;99.90;;;;;;7376477;19;20628;-76
2022/06/06 08:14:02;;;;;;;1.92;1.70;;;23.90;99.90;;;;;;7378458;19;20382;-78
2022/06/06 08:16:38;;;;;;;1.63;1.50;;;24.50;99.90;;;;;;7382249;19;20514;-77
2022/06/06 08:19:04;;;;;;;3.40;2.00;;;24.80;99.90;;;;;;7380653;19;20205;-78
2022/06/06 08:21:40;;;;;;;5.22;1.50;;;24.90;99.90;;;;;;7382584;19;20159;-77
2022/06/06 08:24:11;;;;;;;2.72;1.42;;;25.50;99.90;;;;;;7386405;19;20154;-76
2022/06/06 08:26:40;;;;;;;2.78;1.48;;;26.20;99.90;;;;;;7386395;19;20134;-78
2022/06/06 08:29:09;;;;;;;2.65;1.60;;;26.40;99.90;;;;;;7388743;19;20149;-79
2022/06/06 08:31:36;;;;;;;1.85;1.38;;;26.10;99.90;;;;;;7385392;19;20139;-77
2022/06/06 08:34:02;;;;;;;2.05;1.33;;;26.60;99.90;;;;;;7387294;19;20237;-77
2022/06/06 08:36:33;;;;;;;1.52;1.42;;;26.40;99.90;;;;;;7387151;19;20489;-77
2022/06/06 08:39:08;;;;;;;2.58;1.38;;;26.60;99.90;;;;;;7391776;19;20139;-77
2022/06/06 08:42:07;;;;;;;1.10;1.00;;;26.50;99.90;;;;;;7393259;19;20142;-76
2022/06/06 08:45:12;;;;;;;1.33;1.23;;;26.10;99.90;;;;;;7395299;19;20134;-77
2022/06/06 08:47:56;;;;;;;1.83;1.20;;;26.70;99.90;;;;;;7390146;19;20150;-78
2022/06/06 08:50:46;;;;;;;1.85;1.20;;;26.50;99.90;;;;;;7393512;19;20153;-78
2022/06/06 08:53:30;;;;;;;2.08;1.20;;;26.50;99.90;;;;;;7393820;19;20135;-77
2022/06/06 08:56:04;;;;;;;1.30;1.20;;;26.50;99.90;;;;;;7391601;19;20165;-76
2022/06/06 08:58:49;;;;;;;2.35;1.40;;;26.30;99.90;;;;;;7397478;19;20140;-78
2022/06/06 09:01:24;;;;;;;2.28;1.10;;;26.10;99.90;;;;;;7395542;19;20202;-76
2022/06/06 09:04:19;;;;;;;3.60;1.10;;;25.70;99.90;;;;;;7392998;19;20149;-77
2022/06/06 09:07:07;;;;;;;0.70;0.70;;;25.30;99.90;;;;;;7394527;19;20507;-77
2022/06/06 09:09:51;;;;;;;2.20;1.17;;;25.40;99.90;;;;;;7394152;19;20151;-77
2022/06/06 09:12:23;;;;;;;1.85;1.15;;;25.50;99.90;;;;;;7395465;19;20158;-77
2022/06/06 09:15:27;;;;;;;1.30;1.05;;;25.70;99.90;;;;;;7394611;19;20159;-76
2022/06/06 09:18:18;;;;;;;1.70;1.20;;;26.20;99.90;;;;;;7392759;19;20233;-75
2022/06/06 09:21:13;;;;;;;1.00;0.75;;;26.50;98.30;;;;;;7388526;19;20166;-76
2022/06/06 09:24:02;;;;;;;1.20;1.10;;;26.10;98.70;;;;;;7391617;19;20649;-76
2022/06/06 09:27:01;;;;;;;2.15;1.25;;;26.00;99.50;;;;;;7389824;19;20154;-77
2022/06/06 09:30:11;;;;;;;2.40;1.50;;;25.90;99.50;;;;;;7392682;19;20142;-75
2022/06/06 09:33:14;;;;;;;1.25;1.10;;;25.70;99.90;;;;;;7391476;19;20156;-78
2022/06/06 09:36:13;;;;;;;1.20;1.10;;;25.70;99.50;;;;;;7394018;19;20158;-77
2022/06/06 09:39:08;;;;;;;3.50;1.02;;;25.90;99.30;;;;;;7392175;19;20631;-76
2022/06/06 09:42:00;;;;;;;1.27;0.98;;;26.00;99.00;;;;;;7391659;19;20158;-76
2022/06/06 09:44:56;;;;;;;1.88;1.02;;;26.00;99.00;;;;;;7391992;19;20154;-76
2022/06/06 09:47:52;;;;;;;1.10;1.00;;;25.90;98.80;;;;;;7387943;19;20147;-77
2022/06/06 09:50:57;;;;;;;1.02;0.90;;;25.80;98.40;;;;;;7392089;19;20142;-78
2022/06/06 09:59:01;;;;;;;1.67;1.13;;;25.80;98.70;;;;;;7390660;19;20146;-75
2022/06/06 10:00:00;;;;;;;1.42;1.20;;;25.70;98.20;;;;;;7391495;19;20154;-77
2022/06/06 10:02:44;;;;;;;4.40;2.92;;;25.70;98.80;;;;;;7393659;19;20646;-76
2022/06/06 10:05:19;;;;;;;1.10;1.00;;;25.70;99.00;;;;;;7389855;19;20178;-77
2022/06/06 10:08:00;;;;;;;1.27;0.90;;;25.70;98.30;;;;;;7390662;19;20492;-77
2022/06/06 10:10:53;;;;;;;1.20;1.10;;;25.70;98.20;;;;;;7391331;19;20172;-75
2022/06/06 10:13:37;;;;;;;1.83;0.90;;;25.70;98.10;;;;;;7393996;19;20143;-75
2022/06/06 10:16:54;;;;;;;2.33;1.10;;;25.70;98.30;;;;;;7391025;19;20158;-74
2022/06/06 10:19:22;;;;;;;1.80;1.23;;;25.50;97.10;;;;;;7384905;19;20637;-78
2022/06/06 10:22:02;;;;;;;1.05;0.95;;;25.70;97.00;;;;;;7387513;19;20142;-78
2022/06/06 10:24:46;;;;;;;2.20;1.40;;;25.70;96.80;;;;;;7391213;19;20450;-76
2022/06/06 10:27:36;;;;;;;1.20;1.10;;;25.80;97.60;;;;;;7391199;19;20492;-78
2022/06/06 10:30:11;;;;;;;1.30;1.20;;;25.70;97.40;;;;;;7387761;19;20147;-78
2022/06/06 10:33:02;;;;;;;1.40;1.08;;;25.50;97.00;;;;;;7392603;19;20126;-76
2022/06/06 10:35:37;;;;;;;1.15;1.05;;;25.30;97.30;;;;;;7389662;19;20143;-77
2022/06/06 10:38:40;;;;;;;1.33;1.10;;;25.30;97.80;;;;;;7388430;19;20134;-76
2022/06/06 10:41:33;;;;;;;1.88;1.10;;;25.30;98.00;;;;;;7390131;19;20154;-78
2022/06/06 10:44:30;;;;;;;1.00;0.93;;;25.30;98.00;;;;;;7390406;19;20218;-79
2022/06/06 10:47:24;;;;;;;1.20;1.10;;;25.20;98.50;;;;;;7387866;19;20158;-76
2022/06/06 10:50:14;;;;;;;1.92;1.20;;;25.10;98.10;;;;;;7388368;19;20134;-78
2022/06/06 10:53:26;;;;;;;1.52;1.30;;;24.70;98.80;;;;;;7392647;19;20156;-78
2022/06/06 10:56:15;;;;;;;1.25;1.15;;;24.70;98.60;;;;;;7386913;19;20139;-76
2022/06/06 10:58:53;;;;;;;1.48;1.30;;;24.30;99.70;;;;;;7391922;19;20168;-78
2022/06/06 11:01:30;;;;;;;2.03;1.48;;;24.30;99.40;;;;;;7385739;19;20138;-76
2022/06/06 11:03:58;;;;;;;1.50;1.30;;;24.30;99.80;;;;;;7389809;19;20171;-76
2022/06/06 11:06:42;;;;;;;1.33;1.00;;;24.30;99.90;;;;;;7386521;19;20135;-75
2022/06/06 11:09:11;;;;;;;2.65;1.48;;;24.40;99.90;;;;;;7392061;19;20142;-77
2022/06/06 11:11:49;;;;;;;1.17;0.90;;;24.80;98.20;;;;;;7388491;19;20150;-76
2022/06/06 11:14:26;;;;;;;1.30;1.10;;;25.00;98.00;;;;;;7388954;19;20167;-77
2022/06/06 11:17:14;;;;;;;2.92;1.20;;;25.00;97.10;;;;;;7390494;19;20150;-79
2022/06/06 11:20:28;;;;;;;1.17;1.08;;;24.80;97.80;;;;;;7388586;19;20142;-76
2022/06/06 11:23:21;;;;;;;1.63;1.30;;;24.80;98.20;;;;;;7389583;19;20152;-75
2022/06/06 11:26:16;;;;;;;1.10;1.00;;;25.00;98.30;;;;;;7387512;19;20215;-75
2022/06/06 11:28:57;;;;;;;1.50;1.40;;;24.90;98.30;;;;;;7386809;19;20151;-75
2022/06/06 11:32:00;;;;;;;1.60;1.50;;;24.90;98.80;;;;;;7390045;19;20134;-76
2022/06/06 11:34:44;;;;;;;1.58;1.25;;;25.00;98.20;;;;;;7391955;19;20154;-76
2022/06/06 11:37:19;;;;;;;1.35;1.10;;;25.00;98.90;;;;;;7388035;19;20130;-76
2022/06/06 11:39:47;;;;;;;2.35;1.40;;;25.20;98.20;;;;;;7390523;19;20591;-76
2022/06/06 11:42:32;;;;;;;2.53;1.33;;;25.20;98.00;;;;;;7390605;19;20190;-76
2022/06/06 11:45:17;;;;;;;2.03;1.10;;;25.10;97.80;;;;;;7387979;19;20168;-75
2022/06/06 11:48:01;;;;;;;1.40;1.17;;;24.90;98.30;;;;;;7384008;19;20143;-75
2022/06/06 11:50:42;;;;;;;3.10;1.50;;;24.90;98.70;;;;;;7389690;19;20226;-75
2022/06/06 11:53:39;;;;;;;1.85;1.23;;;24.90;98.40;;;;;;7387479;19;20143;-75
2022/06/06 11:56:15;;;;;;;1.92;1.08;;;24.70;97.50;;;;;;7387620;19;20605;-76
2022/06/06 11:58:50;;;;;;;2.10;1.30;;;24.60;98.00;;;;;;7388948;19;20162;-76
2022/06/06 12:01:57;;;;;;;2.25;1.40;;;24.60;98.20;;;;;;7385131;19;20145;-76
2022/06/06 12:04:56;;;;;;;2.90;1.17;;;24.60;98.00;;;;;;7381825;19;20257;-76
2022/06/06 12:07:41;;;;;;;1.40;1.20;;;24.50;98.10;;;;;;7385049;19;20476;-78
2022/06/06 12:10:24;;;;;;;1.10;0.90;;;24.60;98.40;;;;;;7386469;19;20141;-76
2022/06/06 12:13:08;;;;;;;1.90;1.10;;;24.80;98.60;;;;;;7392516;19;20134;-75
2022/06/06 12:15:46;;;;;;;1.95;1.17;;;24.80;97.80;;;;;;7386867;19;20147;-78
2022/06/06 12:18:20;;;;;;;1.30;1.13;;;24.70;98.10;;;;;;7388859;19;20246;-77
2022/06/06 12:21:15;;;;;;;1.45;1.20;;;24.70;98.60;;;;;;7384102;19;20565;-76
2022/06/06 12:24:10;;;;;;;1.63;1.27;;;24.50;98.10;;;;;;7386269;19;20135;-76
2022/06/06 12:27:07;;;;;;;1.33;0.98;;;24.20;97.30;;;;;;7385162;19;20143;-78
2022/06/06 12:30:09;;;;;;;1.40;0.90;;;24.10;97.70;;;;;;7386350;19;20161;-76
2022/06/06 12:32:58;;;;;;;5.80;1.52;;;24.10;97.90;;;;;;7385455;19;20134;-77
2022/06/06 12:35:43;;;;;;;0.93;0.80;;;24.20;97.70;;;;;;7383488;19;20532;-76
2022/06/06 12:38:35;;;;;;;3.17;1.00;;;24.20;97.30;;;;;;7384605;19;20494;-78
2022/06/06 12:41:20;;;;;;;0.90;0.90;;;24.40;97.50;;;;;;7385379;19;20167;-78
2022/06/06 12:44:01;;;;;;;2.05;1.10;;;24.60;96.70;;;;;;7389148;19;20139;-77
2022/06/06 12:46:36;;;;;;;1.70;1.08;;;24.70;97.30;;;;;;7386128;19;20685;-76
2022/06/06 12:49:35;;;;;;;3.92;1.10;;;24.80;97.00;;;;;;7389534;19;20485;-78
2022/06/06 12:52:10;;;;;;;1.70;0.93;;;24.90;97.10;;;;;;7385673;19;20594;-76
2022/06/06 12:57:50;;;;;;;1.35;1.00;;;24.90;96.80;;;;;;7386120;19;20142;-78
2022/06/06 13:01:37;;;;;;;2.03;1.50;;;25.00;96.30;;;;;;7384762;19;20450;-77
2022/06/06 13:03:56;;;;;;;1.33;1.10;;;25.20;96.00;;;;;;7383241;19;20135;-77
2022/06/06 13:06:39;;;;;;;2.15;1.10;;;25.30;96.20;;;;;;7385324;19;20175;-78
2022/06/06 13:09:33;;;;;;;1.88;1.20;;;25.20;95.60;;;;;;7388053;19;20461;-76
2022/06/06 13:12:34;;;;;;;1.90;1.00;;;25.10;96.00;;;;;;7387103;19;20146;-78
2022/06/06 13:15:11;;;;;;;1.42;1.00;;;24.90;96.10;;;;;;7381651;19;20142;-77
2022/06/06 13:18:07;;;;;;;1.17;1.08;;;24.80;96.20;;;;;;7384810;19;20158;-76
2022/06/06 13:20:58;;;;;;;1.17;1.08;;;24.80;96.50;;;;;;7386963;19;20142;-77
2022/06/06 13:23:42;;;;;;;1.08;0.90;;;24.60;96.20;;;;;;7387251;19;20230;-75
2022/06/06 13:26:24;;;;;;;1.40;1.00;;;24.30;97.20;;;;;;7391758;19;20492;-77
2022/06/06 13:28:53;;;;;;;1.50;1.20;;;24.20;97.50;;;;;;7391028;19;20134;-75
2022/06/06 13:31:33;;;;;;;1.30;1.13;;;24.20;97.80;;;;;;7390315;19;20135;-76
2022/06/06 13:34:11;;;;;;;1.75;1.10;;;24.10;98.50;;;;;;7394319;19;20542;-76
2022/06/06 13:37:07;;;;;;;1.48;1.33;;;24.10;98.10;;;;;;7391678;19;20130;-78
2022/06/06 13:40:08;;;;;;;1.80;1.35;;;23.90;97.20;;;;;;7391602;19;20151;-75
2022/06/06 13:43:05;;;;;;;1.30;1.08;;;23.80;97.60;;;;;;7392610;19;20149;-76
2022/06/06 13:45:49;;;;;;;2.10;1.40;;;23.70;97.90;;;;;;7393189;19;20147;-78
2022/06/06 13:48:43;;;;;;;1.83;1.10;;;23.50;98.10;;;;;;7389204;19;20143;-78
2022/06/06 13:51:23;;;;;;;4.88;1.23;;;23.30;97.60;;;;;;7392912;19;20667;-76
2022/06/06 13:54:05;;;;;;;1.20;1.10;;;23.30;98.30;;;;;;7392158;19;20145;-80
2022/06/06 13:56:51;;;;;;;1.52;1.33;;;23.40;98.00;;;;;;7392007;19;20357;-76
2022/06/06 13:59:49;;;;;;;2.30;1.58;;;23.30;98.40;;;;;;7392727;19;20206;-75
2022/06/06 14:02:36;;;;;;;1.42;1.10;;;23.30;98.40;;;;;;7390853;19;20158;-78
2022/06/06 14:05:15;;;;;;;1.88;1.30;;;23.20;99.00;;;;;;7388657;19;20704;-78
2022/06/06 14:08:07;;;;;;;2.40;1.20;;;23.10;99.20;;;;;;7390847;19;20554;-75
2022/06/06 14:10:55;;;;;;;1.58;1.23;;;23.10;99.80;;;;;;7391570;19;20150;-78
2022/06/06 14:13:26;;;;;;;2.35;1.42;;;23.00;99.90;;;;;;7391502;19;20145;-75
2022/06/06 14:15:52;;;;;;;1.48;1.30;;;23.20;99.60;;;;;;7391349;19;20590;-76
2022/06/06 14:18:32;;;;;;;2.65;1.00;;;23.10;99.30;;;;;;7388679;19;20488;-79